Dover, New Jersey
Current Conditions -  °F | °C
As of 6:45 AM on Sunday 23 Nov 2014 (Local Time) from KMMU Reporting Station
Overcast Overcast  
Wind Chill: 39°   Ceiling: 8500
Heat Index: 39°   Visibility: 10mi
Dew Point: 21°   Wind: 0mph
Humidity: 49%   Direction: NA
Pressure: 30.2"   Gusts: NA
Location:  40.89°N, 74.56°W
Report Text: KMMU 231145Z 00000KT 10SM BKN085 OVC110 04/M06 A3020
Loading
Personal Weather Stations






























Interactive Weather Map New forecast layout! Learn more

10-Day Weather Forecast

Advertisements
Track Severe Weather on mobile